createdAt,value
2018-11-20T15:50:18.236Z,4.31
2018-11-20T15:53:04.455Z,4.48
2018-11-20T15:55:50.564Z,4.71
2018-11-20T15:58:42.342Z,4.94
2018-11-20T16:01:37.545Z,5.05
2018-11-20T16:04:21.515Z,5.06
2018-11-20T16:07:07.606Z,5.05
2018-11-20T16:09:53.834Z,5.04
2018-11-20T16:12:40.063Z,4.95
2018-11-20T16:15:17.960Z,4.91
2018-11-20T16:18:14.677Z,4.91
2018-11-20T16:21:01.244Z,4.86
2018-11-20T16:24:07.284Z,4.86
2018-11-20T16:26:43.601Z,4.80
2018-11-20T16:29:29.625Z,4.70
2018-11-20T16:32:13.583Z,4.49
2018-11-20T16:35:06.417Z,4.42
2018-11-20T16:37:47.210Z,4.34
2018-11-20T16:40:43.777Z,4.21
2018-11-20T16:43:30.071Z,4.15
2018-11-20T16:46:16.695Z,4.02
2018-11-20T16:49:16.027Z,3.91
2018-11-20T16:52:09.168Z,3.88
2018-11-20T16:54:56.053Z,3.83
2018-11-20T16:57:43.652Z,3.73
2018-11-20T17:00:30.226Z,3.71
2018-11-20T17:03:38.587Z,3.67
2018-11-20T17:06:24.279Z,3.64
2018-11-20T17:09:10.597Z,3.48
2018-11-20T17:11:58.076Z,3.43
2018-11-20T17:14:58.153Z,3.32
2018-11-20T17:17:57.955Z,3.16
2018-11-20T17:20:43.615Z,3.19
2018-11-20T17:23:31.110Z,3.09
2018-11-20T17:26:18.642Z,2.99
2018-11-20T17:29:05.518Z,2.92
2018-11-20T17:31:51.676Z,2.90
2018-11-20T17:34:44.777Z,2.89
2018-11-20T17:37:34.872Z,2.76
2018-11-20T17:40:31.308Z,2.69
2018-11-20T17:43:17.507Z,2.63
2018-11-20T17:46:10.843Z,2.71
2018-11-20T17:49:13.425Z,2.65
2018-11-20T17:51:59.667Z,2.59
2018-11-20T17:54:53.320Z,2.53
2018-11-20T17:57:57.181Z,2.51
2018-11-20T18:00:49.403Z,2.51
2018-11-20T18:03:48.910Z,2.48
2018-11-20T18:06:32.537Z,2.34
2018-11-20T18:09:38.562Z,2.36
2018-11-20T18:12:24.656Z,2.38
2018-11-20T18:15:17.918Z,2.32
2018-11-20T18:18:02.416Z,2.34
2018-11-20T18:20:41.506Z,2.32
2018-11-20T18:23:29.003Z,2.34
2018-11-20T18:26:13.794Z,2.27
2018-11-20T18:29:00.092Z,2.18
2018-11-20T18:31:50.921Z,2.15
2018-11-20T18:34:53.130Z,2.11
2018-11-20T18:37:40.684Z,2.12
2018-11-20T18:40:33.842Z,2.08
2018-11-20T18:43:30.171Z,2.06
2018-11-20T18:46:16.576Z,2.09
2018-11-20T18:49:02.539Z,1.99
2018-11-20T18:51:50.037Z,2.00
2018-11-20T18:54:41.329Z,1.97
2018-11-20T18:57:38.029Z,1.94
2018-11-20T19:00:46.451Z,1.98
2018-11-20T19:03:34.939Z,1.93
2018-11-20T19:06:25.533Z,1.97
2018-11-20T19:09:12.282Z,2.03
2018-11-20T19:12:03.750Z,1.91
2018-11-20T19:14:47.326Z,1.84
2018-11-20T19:17:53.060Z,1.84
2018-11-20T19:20:39.661Z,1.81
2018-11-20T19:23:42.165Z,1.84
2018-11-20T19:26:28.407Z,1.76
2018-11-20T19:29:31.008Z,1.68
2018-11-20T19:32:18.478Z,1.58
2018-11-20T19:35:03.395Z,1.59
2018-11-20T19:37:46.288Z,1.67
2018-11-20T19:40:32.696Z,1.66
2018-11-20T19:43:23.609Z,1.66
2018-11-20T19:46:09.713Z,1.61
2018-11-20T19:48:52.611Z,1.66
2018-11-20T19:51:49.085Z,1.51
2018-11-20T19:54:45.326Z,1.57
2018-11-20T19:57:28.604Z,1.50
2018-11-20T20:00:14.838Z,1.53
2018-11-20T20:03:00.869Z,1.47
2018-11-20T20:05:51.256Z,1.52
2018-11-20T20:08:41.607Z,1.47
2018-11-20T20:11:21.775Z,1.52
2018-11-20T20:14:17.959Z,1.47
2018-11-20T20:17:04.271Z,1.55
2018-11-20T20:19:53.526Z,1.51
2018-11-20T20:22:40.056Z,1.53
2018-11-20T20:25:21.562Z,1.45
2018-11-20T20:28:07.906Z,1.51
2018-11-20T20:30:57.978Z,1.47
2018-11-20T20:33:43.987Z,1.38
2018-11-20T20:36:46.359Z,1.41
2018-11-20T20:39:36.531Z,1.36
2018-11-20T20:42:22.963Z,1.24
2018-11-20T20:45:16.373Z,1.23
2018-11-20T20:48:06.755Z,1.24
2018-11-20T20:51:12.542Z,1.26
2018-11-20T20:54:06.761Z,1.31
2018-11-20T20:56:56.271Z,1.29
2018-11-20T20:59:46.446Z,1.26
2018-11-20T21:02:32.357Z,1.22
2018-11-20T21:05:10.142Z,1.20
2018-11-20T21:08:00.207Z,1.09
2018-11-20T21:10:46.192Z,1.13
2018-11-20T21:13:29.782Z,1.06
2018-11-20T21:16:23.624Z,1.07
2018-11-20T21:19:01.632Z,1.03
2018-11-20T21:21:47.803Z,1.02
2018-11-20T21:24:30.217Z,1.00
2018-11-20T21:27:26.774Z,0.95
2018-11-20T21:30:12.883Z,0.95
2018-11-20T21:32:55.017Z,0.92
2018-11-20T21:35:51.241Z,0.94
2018-11-20T21:38:53.794Z,0.91
2018-11-20T21:41:41.312Z,0.89
2018-11-20T21:44:27.374Z,0.80
2018-11-20T21:47:14.881Z,0.81
2018-11-20T21:50:00.899Z,0.80
2018-11-20T21:53:00.261Z,0.81
2018-11-20T21:55:53.668Z,0.73
2018-11-20T21:58:33.884Z,0.69
2018-11-20T22:01:22.679Z,0.63
2018-11-20T22:04:28.351Z,0.61
2018-11-20T22:07:15.363Z,0.63
2018-11-20T22:10:20.043Z,0.61
2018-11-20T22:13:19.405Z,0.63
2018-11-20T22:16:04.880Z,0.59
2018-11-20T22:19:04.238Z,0.60
2018-11-20T22:21:41.062Z,0.53
2018-11-20T22:24:26.684Z,0.50
2018-11-20T22:27:13.481Z,0.61
2018-11-20T22:30:03.793Z,0.54
2018-11-20T22:33:01.775Z,0.55
2018-11-20T22:35:47.834Z,0.58
2018-11-20T22:38:38.207Z,0.52
2018-11-20T22:41:28.579Z,0.51
2018-11-20T22:44:14.596Z,0.51
2018-11-20T22:47:11.341Z,0.48
2018-11-20T22:49:54.613Z,0.44
2018-11-20T22:53:00.257Z,0.36
2018-11-20T22:55:54.107Z,0.46
2018-11-20T22:58:38.281Z,0.46
2018-11-20T23:01:25.755Z,0.47
2018-11-20T23:04:12.185Z,0.48
2018-11-20T23:06:58.785Z,0.41
2018-11-20T23:09:27.218Z,0.44
2018-11-20T23:11:55.607Z,0.34
2018-11-20T23:14:24.049Z,0.38
2018-11-20T23:16:52.433Z,0.42
2018-11-20T23:19:20.866Z,0.40
2018-11-20T23:21:49.264Z,0.37
2018-11-20T23:24:17.939Z,0.33
2018-11-20T23:26:46.377Z,0.31
2018-11-20T23:29:14.758Z,0.34
2018-11-20T23:31:43.186Z,0.33
2018-11-20T23:34:11.647Z,0.28
2018-11-20T23:36:40.069Z,0.27
2018-11-20T23:39:09.747Z,0.25
2018-11-20T23:41:38.162Z,0.31
2018-11-20T23:44:06.553Z,0.32
2018-11-20T23:46:34.995Z,0.32
2018-11-20T23:49:03.391Z,0.31
2018-11-20T23:51:31.829Z,0.23
2018-11-20T23:54:00.266Z,0.32
2018-11-20T23:56:28.712Z,0.30
2018-11-20T23:58:57.142Z,0.23
